Terminal Aerodrome Forecast
Issued by NWS Cleveland, OH

Home | Current Version | Previous Version | Graphics & Text | Print | Product List | Glossary On
Versions: 1 2 3 4 5 6 7 8 9 10 11 12 13 14 15 16 17 18 19
000
FTUS41 KCLE 141103 AAB
TAFMFD
TAF AMD
KMFD 141103Z 1411/1506 33010KT P6SM OVC015
     FM141700 31008KT P6SM SCT015 BKN025
     FM142100 30005KT P6SM BKN035=

USA.gov is the U.S. government's official web portal to all federal, state and local government web resources and services.